createdAt,value
2022-08-20T00:00:31.475Z,17.10
2022-08-20T00:03:17.080Z,17.10
2022-08-20T00:05:52.632Z,17.00
2022-08-20T00:08:24.081Z,17.10
2022-08-20T00:10:55.632Z,17.20
2022-08-20T00:13:33.241Z,17.10
2022-08-20T00:16:00.399Z,17.10
2022-08-20T00:18:27.566Z,17.20
2022-08-20T00:20:56.007Z,17.20
2022-08-20T00:23:23.406Z,17.30
2022-08-20T00:25:51.853Z,17.20
2022-08-20T00:28:18.832Z,17.20
2022-08-20T00:30:46.564Z,17.20
2022-08-20T00:33:19.755Z,17.30
2022-08-20T00:35:53.526Z,17.30
2022-08-20T00:38:20.617Z,17.20
2022-08-20T00:40:50.691Z,17.30
2022-08-20T00:43:48.394Z,17.20
2022-08-20T00:46:28.204Z,17.20
2022-08-20T00:48:59.936Z,17.20
2022-08-20T00:51:43.857Z,17.10
2022-08-20T00:54:23.614Z,17.20
2022-08-20T00:56:57.123Z,17.20
2022-08-20T00:59:27.661Z,17.10
2022-08-20T01:01:56.086Z,17.10
2022-08-20T01:04:26.354Z,17.10
2022-08-20T01:06:53.322Z,17.10
2022-08-20T01:09:33.391Z,17.10
2022-08-20T01:12:09.812Z,17.10
2022-08-20T01:14:46.390Z,17.10
2022-08-20T01:17:22.128Z,17.10
2022-08-20T01:19:53.888Z,17.10
2022-08-20T01:23:01.044Z,17.10
2022-08-20T01:26:04.695Z,17.20
2022-08-20T01:28:57.427Z,17.10
2022-08-20T01:31:27.440Z,17.20
2022-08-20T01:33:55.786Z,17.10
2022-08-20T01:36:27.248Z,17.10
2022-08-20T01:38:54.985Z,17.20
2022-08-20T01:41:59.370Z,17.20
2022-08-20T01:44:26.388Z,17.20
2022-08-20T01:46:55.681Z,17.20
2022-08-20T01:49:32.273Z,17.20
2022-08-20T01:52:02.008Z,17.20
2022-08-20T01:54:28.802Z,17.20
2022-08-20T01:57:03.509Z,17.30
2022-08-20T01:59:30.817Z,17.20
2022-08-20T02:01:58.607Z,17.30
2022-08-20T02:04:26.756Z,17.30
2022-08-20T02:06:57.850Z,17.30
2022-08-20T02:09:30.348Z,17.30
2022-08-20T02:11:58.287Z,17.20
2022-08-20T02:14:25.289Z,17.20
2022-08-20T02:16:55.123Z,17.20
2022-08-20T02:19:34.487Z,17.20
2022-08-20T02:22:07.042Z,17.20
2022-08-20T02:24:33.689Z,17.20
2022-08-20T02:27:00.450Z,17.20
2022-08-20T02:29:27.112Z,17.20
2022-08-20T02:32:25.066Z,17.20
2022-08-20T02:34:41.585Z,17.20
2022-08-20T02:37:08.331Z,17.20
2022-08-20T02:39:35.608Z,17.20
2022-08-20T02:42:05.584Z,17.20
2022-08-20T02:44:32.353Z,17.10
2022-08-20T02:47:00.217Z,17.00
2022-08-20T02:49:27.119Z,17.10
2022-08-20T02:51:53.802Z,17.00
2022-08-20T02:54:20.499Z,17.10
2022-08-20T02:56:47.397Z,17.10
2022-08-20T02:59:19.858Z,17.00
2022-08-20T03:01:48.325Z,17.00
2022-08-20T03:04:26.080Z,17.10
2022-08-20T03:06:53.000Z,17.00
2022-08-20T03:09:19.674Z,17.00
2022-08-20T03:11:46.297Z,17.00
2022-08-20T03:14:12.970Z,17.00
2022-08-20T03:16:39.585Z,17.00
2022-08-20T03:19:06.362Z,17.00
2022-08-20T03:21:33.013Z,16.90
2022-08-20T03:23:59.748Z,16.90
2022-08-20T03:26:26.462Z,17.00
2022-08-20T03:28:53.240Z,17.00
2022-08-20T03:31:19.987Z,17.00
2022-08-20T03:33:53.182Z,17.00
2022-08-20T03:36:28.089Z,17.00
2022-08-20T03:39:01.538Z,17.00
2022-08-20T03:41:28.921Z,16.90
2022-08-20T03:43:55.751Z,16.90
2022-08-20T03:46:23.473Z,16.90
2022-08-20T03:49:00.577Z,16.90
2022-08-20T03:51:31.358Z,16.90
2022-08-20T03:53:58.913Z,17.00
2022-08-20T03:56:26.768Z,17.00
2022-08-20T03:58:53.470Z,17.00
2022-08-20T04:01:45.394Z,17.10
2022-08-20T04:04:12.661Z,17.10
2022-08-20T04:06:40.419Z,17.20
2022-08-20T04:09:09.533Z,17.20
2022-08-20T04:11:38.223Z,17.20
2022-08-20T04:14:04.949Z,17.30
2022-08-20T04:16:33.024Z,17.30
2022-08-20T04:19:02.387Z,17.30
2022-08-20T04:21:34.138Z,17.40
2022-08-20T04:24:05.403Z,17.30
2022-08-20T04:26:32.453Z,17.30
2022-08-20T04:28:59.186Z,17.30
2022-08-20T04:31:33.919Z,17.30
2022-08-20T04:34:02.119Z,17.30
2022-08-20T04:36:29.355Z,17.30
2022-08-20T04:38:56.016Z,17.30
2022-08-20T04:41:24.357Z,17.30
2022-08-20T04:43:54.079Z,17.30
2022-08-20T04:46:22.392Z,17.30
2022-08-20T04:48:50.427Z,17.20
2022-08-20T04:51:18.038Z,17.20
2022-08-20T04:53:51.688Z,17.20
2022-08-20T04:56:23.229Z,17.20
2022-08-20T04:58:51.071Z,17.20
2022-08-20T05:01:18.426Z,17.20
2022-08-20T05:03:47.513Z,17.20
2022-08-20T05:06:16.188Z,17.20
2022-08-20T05:08:44.346Z,17.20
2022-08-20T05:11:33.808Z,17.20
2022-08-20T05:13:58.385Z,17.30
2022-08-20T05:16:25.168Z,17.30
2022-08-20T05:18:52.319Z,17.30
2022-08-20T05:21:20.903Z,17.20
2022-08-20T05:23:49.659Z,17.20
2022-08-20T05:26:19.975Z,17.20
2022-08-20T05:28:57.338Z,17.20
2022-08-20T05:31:31.436Z,17.20
2022-08-20T05:34:00.135Z,17.20
2022-08-20T05:36:26.940Z,17.20
2022-08-20T05:38:54.593Z,17.20
2022-08-20T05:41:27.699Z,17.20
2022-08-20T05:44:02.182Z,17.30
2022-08-20T05:46:31.616Z,17.30
2022-08-20T05:49:01.263Z,17.40
2022-08-20T05:51:28.728Z,17.30
2022-08-20T05:53:59.344Z,17.40
2022-08-20T05:56:30.132Z,17.30
2022-08-20T05:58:58.342Z,17.40
2022-08-20T06:01:25.011Z,17.50
2022-08-20T06:04:10.173Z,17.50
2022-08-20T06:06:45.563Z,17.40
2022-08-20T06:09:14.488Z,17.50
2022-08-20T06:11:41.123Z,17.50
2022-08-20T06:14:07.879Z,17.50
2022-08-20T06:16:34.695Z,17.50
2022-08-20T06:19:05.024Z,17.50
2022-08-20T06:21:32.325Z,17.50
2022-08-20T06:24:01.669Z,17.50
2022-08-20T06:26:30.292Z,17.50
2022-08-20T06:28:57.927Z,17.50
2022-08-20T06:31:24.968Z,17.50
2022-08-20T06:33:51.707Z,17.50
2022-08-20T06:36:19.148Z,17.40
2022-08-20T06:38:46.553Z,17.40
2022-08-20T06:41:13.357Z,17.30
2022-08-20T06:43:40.102Z,17.40
2022-08-20T06:46:06.932Z,17.20
2022-08-20T06:48:34.034Z,17.20
2022-08-20T06:51:01.460Z,17.10
2022-08-20T06:53:28.949Z,17.10
2022-08-20T06:55:58.753Z,17.10
2022-08-20T06:58:32.815Z,17.20
2022-08-20T07:01:09.381Z,17.10
2022-08-20T07:03:42.196Z,17.10
2022-08-20T07:06:21.043Z,17.20
2022-08-20T07:08:47.702Z,17.30
2022-08-20T07:11:14.383Z,17.30
2022-08-20T07:13:41.905Z,17.30
2022-08-20T07:16:08.963Z,17.30
2022-08-20T07:18:36.297Z,17.40
2022-08-20T07:21:03.437Z,17.40
2022-08-20T07:23:31.494Z,17.50
2022-08-20T07:25:58.356Z,17.50
2022-08-20T07:28:31.817Z,17.50
2022-08-20T07:31:17.582Z,17.60
2022-08-20T07:33:47.207Z,17.60
2022-08-20T07:36:17.577Z,17.60
2022-08-20T07:38:46.910Z,17.60
2022-08-20T07:41:14.712Z,17.70
2022-08-20T07:43:45.443Z,17.80
2022-08-20T07:46:14.130Z,17.80
2022-08-20T07:48:46.100Z,17.80
2022-08-20T07:51:16.987Z,17.80
2022-08-20T07:53:45.662Z,17.90
2022-08-20T07:56:15.077Z,18.00
2022-08-20T07:58:47.364Z,18.00
2022-08-20T08:01:14.135Z,18.10
2022-08-20T08:03:49.802Z,18.20
2022-08-20T08:06:30.525Z,18.30
2022-08-20T08:09:13.277Z,18.50
2022-08-20T08:11:47.390Z,18.50
2022-08-20T08:14:16.537Z,18.60
2022-08-20T08:16:45.346Z,18.70
2022-08-20T08:19:15.702Z,18.80
2022-08-20T08:21:43.545Z,18.90
2022-08-20T08:24:13.456Z,19.00
2022-08-20T08:26:42.221Z,19.10
2022-08-20T08:29:09.046Z,19.20
2022-08-20T08:31:35.712Z,19.30
2022-08-20T08:34:02.373Z,19.30
2022-08-20T08:36:29.181Z,19.40
2022-08-20T08:38:56.522Z,19.40
2022-08-20T08:41:29.338Z,19.50
2022-08-20T08:44:06.021Z,19.50
2022-08-20T08:46:38.135Z,19.60
2022-08-20T08:49:05.352Z,19.60
2022-08-20T08:51:45.192Z,19.60
2022-08-20T08:54:19.996Z,19.70
2022-08-20T08:56:49.607Z,19.80
2022-08-20T08:59:18.533Z,19.80
2022-08-20T09:01:53.942Z,20.00
2022-08-20T09:04:31.675Z,20.00
2022-08-20T09:07:01.296Z,20.00
2022-08-20T09:09:32.353Z,20.10
2022-08-20T09:12:18.911Z,20.10
2022-08-20T09:14:47.965Z,20.10
2022-08-20T09:17:19.017Z,20.20
2022-08-20T09:19:45.860Z,20.10
2022-08-20T09:22:19.130Z,20.10
2022-08-20T09:24:46.897Z,20.10
2022-08-20T09:27:13.776Z,20.20
2022-08-20T09:29:40.873Z,20.20
2022-08-20T09:32:11.917Z,20.30
2022-08-20T09:34:46.160Z,20.30
2022-08-20T09:37:14.558Z,20.40
2022-08-20T09:39:41.663Z,20.40
2022-08-20T09:42:14.419Z,20.40
2022-08-20T09:44:41.532Z,20.40
2022-08-20T09:47:08.467Z,20.30
2022-08-20T09:49:37.186Z,20.40
2022-08-20T09:52:06.373Z,20.40
2022-08-20T09:54:34.147Z,20.40
2022-08-20T09:57:05.198Z,20.50
2022-08-20T09:59:33.781Z,20.50
2022-08-20T10:02:00.587Z,20.60
2022-08-20T10:04:27.284Z,20.60
2022-08-20T10:06:53.980Z,20.70
2022-08-20T10:09:20.836Z,20.80
2022-08-20T10:11:47.558Z,20.90
2022-08-20T10:14:14.261Z,20.90
2022-08-20T10:16:40.902Z,21.00
2022-08-20T10:19:07.856Z,21.10
2022-08-20T10:21:38.610Z,21.20
2022-08-20T10:24:06.152Z,21.30
2022-08-20T10:26:32.911Z,21.40
2022-08-20T10:28:59.621Z,21.40
2022-08-20T10:31:26.267Z,21.30
2022-08-20T10:33:52.939Z,21.40
2022-08-20T10:36:19.997Z,21.40
2022-08-20T10:38:48.470Z,21.50
2022-08-20T10:41:15.292Z,21.50
2022-08-20T10:43:41.908Z,21.60
2022-08-20T10:46:09.094Z,21.60
2022-08-20T10:48:35.744Z,21.60
2022-08-20T10:51:02.392Z,21.60
2022-08-20T10:53:29.561Z,21.70
2022-08-20T10:55:57.706Z,21.80
2022-08-20T10:58:25.213Z,21.80
2022-08-20T11:00:52.852Z,21.80
2022-08-20T11:03:20.324Z,21.80
2022-08-20T11:05:47.194Z,22.00
2022-08-20T11:08:14.035Z,22.00
2022-08-20T11:10:41.309Z,22.00
2022-08-20T11:13:09.243Z,22.00
2022-08-20T11:15:38.908Z,22.00
2022-08-20T11:18:06.271Z,22.10
2022-08-20T11:20:33.421Z,22.10
2022-08-20T11:23:00.563Z,22.10
2022-08-20T11:25:28.158Z,22.20
2022-08-20T11:27:56.180Z,22.30
2022-08-20T11:30:31.853Z,22.40
2022-08-20T11:32:59.503Z,22.50
2022-08-20T11:35:49.498Z,22.60
2022-08-20T11:38:13.707Z,22.70
2022-08-20T11:40:40.450Z,22.70
2022-08-20T11:43:15.940Z,22.70
2022-08-20T11:45:46.172Z,22.70
2022-08-20T11:48:12.975Z,22.90
2022-08-20T11:50:39.799Z,22.90
2022-08-20T11:53:07.916Z,22.80
2022-08-20T11:55:35.189Z,22.80
2022-08-20T11:58:02.368Z,22.90
2022-08-20T12:00:33.072Z,23.00
2022-08-20T12:03:09.288Z,23.10
2022-08-20T12:05:38.477Z,23.10
2022-08-20T12:08:05.834Z,23.20
2022-08-20T12:10:33.343Z,23.30
2022-08-20T12:13:00.070Z,23.30
2022-08-20T12:15:29.429Z,23.30
2022-08-20T12:17:56.437Z,23.30
2022-08-20T12:20:23.921Z,23.30
2022-08-20T12:22:50.740Z,23.40
2022-08-20T12:25:17.731Z,23.40
2022-08-20T12:27:45.813Z,23.50
2022-08-20T12:30:21.672Z,23.50
2022-08-20T12:32:48.405Z,23.60
2022-08-20T12:35:16.716Z,23.70
2022-08-20T12:37:44.105Z,23.80
2022-08-20T12:40:15.043Z,23.80
2022-08-20T12:42:42.286Z,23.70
2022-08-20T12:45:09.630Z,23.60
2022-08-20T12:47:39.365Z,23.60
2022-08-20T12:50:09.037Z,23.50
2022-08-20T12:52:35.954Z,23.50
2022-08-20T12:55:03.964Z,23.50
2022-08-20T12:57:38.516Z,23.50
2022-08-20T13:00:11.366Z,23.40
2022-08-20T13:02:41.288Z,23.30
2022-08-20T13:05:12.684Z,23.40
2022-08-20T13:07:40.795Z,23.30
2022-08-20T13:10:09.941Z,23.30
2022-08-20T13:12:36.876Z,23.30
2022-08-20T13:15:04.992Z,23.40
2022-08-20T13:17:38.196Z,23.40
2022-08-20T13:20:07.863Z,23.50
2022-08-20T13:22:34.553Z,23.50
2022-08-20T13:25:01.228Z,23.40
2022-08-20T13:27:27.914Z,23.40
2022-08-20T13:29:58.888Z,23.40
2022-08-20T13:32:26.428Z,23.40
2022-08-20T13:34:53.484Z,23.30
2022-08-20T13:37:26.019Z,23.20
2022-08-20T13:39:54.265Z,23.30
2022-08-20T13:42:21.714Z,23.30
2022-08-20T13:44:48.916Z,23.30
2022-08-20T13:47:16.831Z,23.40
2022-08-20T13:49:44.136Z,23.50
2022-08-20T13:52:10.963Z,23.50
2022-08-20T13:54:38.183Z,23.70
2022-08-20T13:57:11.998Z,23.80
2022-08-20T13:59:41.021Z,23.80
2022-08-20T14:02:09.778Z,24.00
2022-08-20T14:04:36.465Z,24.10
2022-08-20T14:07:32.746Z,24.10
2022-08-20T14:10:07.039Z,24.20
2022-08-20T14:12:34.486Z,24.20
2022-08-20T14:15:01.132Z,24.20
2022-08-20T14:17:31.426Z,24.20
2022-08-20T14:20:01.920Z,24.30
2022-08-20T14:22:29.631Z,24.20
2022-08-20T14:24:56.696Z,24.20
2022-08-20T14:27:27.788Z,24.30
2022-08-20T14:29:57.538Z,24.30
2022-08-20T14:32:24.292Z,24.20
2022-08-20T14:34:51.011Z,24.30
2022-08-20T14:37:28.344Z,24.40
2022-08-20T14:39:57.073Z,24.50
2022-08-20T14:42:26.456Z,24.50
2022-08-20T14:44:53.885Z,24.40
2022-08-20T14:47:23.774Z,24.40
2022-08-20T14:49:52.280Z,24.40
2022-08-20T14:52:21.099Z,24.40
2022-08-20T14:54:48.560Z,24.40
2022-08-20T14:57:18.411Z,24.40
2022-08-20T14:59:45.983Z,24.40
2022-08-20T15:02:15.239Z,24.60
2022-08-20T15:04:42.390Z,24.60
2022-08-20T15:07:25.278Z,24.60
2022-08-20T15:09:52.846Z,24.60
2022-08-20T15:12:19.814Z,24.70
2022-08-20T15:14:48.028Z,24.60
2022-08-20T15:17:24.932Z,24.70
2022-08-20T15:19:52.182Z,24.80
2022-08-20T15:22:19.275Z,24.80
2022-08-20T15:24:46.126Z,24.80
2022-08-20T15:27:22.992Z,24.80
2022-08-20T15:29:51.027Z,24.80
2022-08-20T15:32:18.338Z,24.80
2022-08-20T15:34:45.444Z,24.70
2022-08-20T15:37:15.259Z,24.60
2022-08-20T15:39:44.263Z,24.60
2022-08-20T15:42:12.883Z,24.60
2022-08-20T15:44:40.630Z,24.50
2022-08-20T15:47:29.454Z,24.50
2022-08-20T15:50:24.895Z,24.40
2022-08-20T15:52:51.880Z,24.50
2022-08-20T15:55:18.683Z,24.40
2022-08-20T15:58:23.872Z,24.40
2022-08-20T16:01:11.314Z,24.40
2022-08-20T16:03:48.141Z,24.40
2022-08-20T16:06:22.727Z,24.20
2022-08-20T16:09:17.473Z,24.30
2022-08-20T16:12:03.103Z,24.40
2022-08-20T16:14:36.936Z,24.40
2022-08-20T16:17:06.202Z,24.30
2022-08-20T16:19:58.037Z,24.20
2022-08-20T16:22:29.352Z,24.30
2022-08-20T16:24:56.877Z,24.30
2022-08-20T16:27:47.692Z,24.40
2022-08-20T16:30:26.171Z,24.40
2022-08-20T16:33:05.726Z,24.40
2022-08-20T16:35:42.010Z,24.40
2022-08-20T16:38:36.048Z,24.50
2022-08-20T16:41:08.876Z,24.40
2022-08-20T16:43:43.433Z,24.40
2022-08-20T16:46:20.526Z,24.40
2022-08-20T16:49:03.465Z,24.40
2022-08-20T16:51:52.003Z,24.40
2022-08-20T16:54:29.268Z,24.30
2022-08-20T16:57:05.203Z,24.20
2022-08-20T16:59:33.156Z,24.20
2022-08-20T17:02:10.309Z,24.20
2022-08-20T17:04:57.850Z,24.10
2022-08-20T17:07:40.154Z,24.10
2022-08-20T17:10:26.309Z,24.10
2022-08-20T17:12:59.881Z,24.10
2022-08-20T17:15:29.819Z,24.10
2022-08-20T17:17:56.859Z,24.10
2022-08-20T17:20:29.101Z,24.00
2022-08-20T17:23:11.151Z,24.00
2022-08-20T17:25:38.381Z,24.00
2022-08-20T17:28:23.017Z,23.90
2022-08-20T17:30:50.799Z,23.90
2022-08-20T17:33:39.432Z,23.80
2022-08-20T17:36:22.229Z,23.80
2022-08-20T17:38:55.417Z,23.70
2022-08-20T17:41:35.678Z,23.70
2022-08-20T17:44:07.324Z,23.60
2022-08-20T17:46:41.453Z,23.50
2022-08-20T17:49:10.288Z,23.40
2022-08-20T17:51:39.078Z,23.40
2022-08-20T17:54:24.319Z,23.40
2022-08-20T17:56:58.127Z,23.30
2022-08-20T18:00:00.184Z,23.30
2022-08-20T18:02:20.574Z,23.20
2022-08-20T18:04:49.106Z,23.20
2022-08-20T18:07:24.580Z,23.10
2022-08-20T18:10:09.018Z,23.10
2022-08-20T18:13:01.065Z,23.10
2022-08-20T18:15:35.921Z,22.90
2022-08-20T18:18:25.002Z,22.70
2022-08-20T18:21:22.302Z,22.70
2022-08-20T18:23:59.201Z,22.60
2022-08-20T18:26:44.061Z,22.60
2022-08-20T18:29:15.712Z,22.50
2022-08-20T18:31:58.977Z,22.50
2022-08-20T18:34:28.386Z,22.40
2022-08-20T18:37:00.729Z,22.40
2022-08-20T18:39:31.068Z,22.30
2022-08-20T18:42:01.962Z,22.30
2022-08-20T18:44:34.389Z,22.20
2022-08-20T18:47:06.087Z,22.10
2022-08-20T18:49:36.454Z,22.10
2022-08-20T18:52:28.056Z,22.10
2022-08-20T18:55:00.708Z,22.10
2022-08-20T18:57:41.466Z,22.10
2022-08-20T19:00:17.758Z,22.00
2022-08-20T19:03:07.777Z,22.10
2022-08-20T19:06:06.065Z,22.10
2022-08-20T19:09:15.145Z,22.00
2022-08-20T19:11:59.906Z,22.00
2022-08-20T19:14:37.333Z,22.00
2022-08-20T19:17:21.929Z,21.90
2022-08-20T19:20:04.166Z,21.90
2022-08-20T19:22:34.145Z,21.90
2022-08-20T19:25:01.564Z,21.90
2022-08-20T19:27:30.423Z,21.90
2022-08-20T19:29:57.843Z,21.90
2022-08-20T19:32:28.017Z,21.90
2022-08-20T19:34:57.926Z,21.90
2022-08-20T19:37:35.045Z,21.90
2022-08-20T19:40:25.690Z,21.90
2022-08-20T19:42:56.054Z,21.90
2022-08-20T19:45:38.582Z,21.80
2022-08-20T19:48:29.942Z,21.80
2022-08-20T19:51:12.192Z,21.80
2022-08-20T19:53:47.726Z,21.70
2022-08-20T19:56:24.066Z,21.70
2022-08-20T19:59:15.869Z,21.70
2022-08-20T20:02:00.013Z,21.60
2022-08-20T20:04:55.730Z,21.40
2022-08-20T20:07:29.036Z,21.30
2022-08-20T20:09:58.394Z,21.20
2022-08-20T20:12:25.623Z,21.20
2022-08-20T20:14:54.654Z,21.10
2022-08-20T20:17:33.237Z,21.10
2022-08-20T20:20:14.451Z,21.10
2022-08-20T20:22:55.570Z,21.10
2022-08-20T20:25:33.913Z,21.10
2022-08-20T20:28:25.414Z,21.00
2022-08-20T20:30:52.055Z,21.00
2022-08-20T20:33:31.149Z,21.00
2022-08-20T20:36:05.070Z,20.90
2022-08-20T20:38:32.776Z,20.90
2022-08-20T20:41:02.312Z,20.80
2022-08-20T20:43:38.379Z,20.70
2022-08-20T20:46:19.301Z,20.70
2022-08-20T20:48:48.689Z,20.70
2022-08-20T20:51:22.095Z,20.70
2022-08-20T20:53:54.859Z,20.70
2022-08-20T20:56:26.355Z,20.70
2022-08-20T20:58:55.474Z,20.70
2022-08-20T21:01:45.539Z,20.70
2022-08-20T21:04:09.684Z,20.60
2022-08-20T21:06:36.414Z,20.60
2022-08-20T21:09:03.221Z,20.60
2022-08-20T21:11:29.922Z,20.50
2022-08-20T21:13:56.544Z,20.50
2022-08-20T21:16:23.250Z,20.40
2022-08-20T21:18:50.068Z,20.40
2022-08-20T21:21:16.880Z,20.40
2022-08-20T21:23:43.596Z,20.40
2022-08-20T21:26:10.313Z,20.30
2022-08-20T21:28:37.170Z,20.20
2022-08-20T21:31:03.927Z,20.10
2022-08-20T21:33:30.665Z,20.00
2022-08-20T21:35:59.912Z,20.00
2022-08-20T21:38:26.634Z,19.90
2022-08-20T21:40:53.533Z,19.90
2022-08-20T21:43:24.880Z,19.90
2022-08-20T21:45:51.896Z,19.80
2022-08-20T21:48:18.913Z,19.80
2022-08-20T21:50:45.812Z,19.80
2022-08-20T21:53:13.250Z,19.70
2022-08-20T21:55:40.834Z,19.70
2022-08-20T21:58:07.997Z,19.80
2022-08-20T22:00:52.347Z,19.80
2022-08-20T22:03:20.307Z,19.80
2022-08-20T22:05:47.628Z,19.80
2022-08-20T22:08:14.656Z,19.80
2022-08-20T22:10:41.317Z,19.90
2022-08-20T22:13:08.026Z,19.90
2022-08-20T22:15:34.704Z,19.80
2022-08-20T22:18:01.479Z,19.80
2022-08-20T22:20:28.747Z,19.70
2022-08-20T22:22:55.642Z,19.70
2022-08-20T22:25:22.404Z,19.70
2022-08-20T22:27:49.502Z,19.60
2022-08-20T22:30:16.170Z,19.50
2022-08-20T22:32:52.164Z,19.50
2022-08-20T22:35:19.454Z,19.50
2022-08-20T22:37:46.240Z,19.40
2022-08-20T22:40:13.066Z,19.40
2022-08-20T22:42:39.758Z,19.40
2022-08-20T22:45:13.449Z,19.40
2022-08-20T22:47:42.451Z,19.40
2022-08-20T22:50:11.514Z,19.50
2022-08-20T22:52:39.567Z,19.40
2022-08-20T22:55:06.885Z,19.30
2022-08-20T22:57:37.253Z,19.30
2022-08-20T23:00:12.833Z,19.20
2022-08-20T23:02:41.718Z,19.20
2022-08-20T23:05:14.649Z,19.20
2022-08-20T23:07:41.560Z,19.10
2022-08-20T23:10:08.727Z,19.20
2022-08-20T23:12:35.459Z,19.10
2022-08-20T23:15:02.072Z,19.20
2022-08-20T23:17:29.017Z,19.10
2022-08-20T23:19:56.000Z,19.10
2022-08-20T23:22:22.631Z,19.00
2022-08-20T23:24:49.328Z,19.00
2022-08-20T23:27:18.483Z,18.90
2022-08-20T23:29:45.245Z,18.90
2022-08-20T23:32:12.672Z,18.80
2022-08-20T23:34:39.970Z,18.80
2022-08-20T23:37:07.875Z,18.70
2022-08-20T23:39:35.486Z,18.60
2022-08-20T23:42:02.537Z,18.60
2022-08-20T23:44:29.543Z,18.60
2022-08-20T23:47:00.146Z,18.50
2022-08-20T23:49:28.162Z,18.50
2022-08-20T23:51:55.372Z,18.50
2022-08-20T23:54:22.173Z,18.50
2022-08-20T23:56:49.435Z,18.50
2022-08-20T23:59:16.092Z,18.50
